Time;durP1;ratioP1;P1;durP2;ratioP2;P2;SDS_P1;SDS_P2;PMS_P1;PMS_P2;Temp;Humidity;BMP_temperature;BMP_pressure;BME280_temperature;BME280_humidity;BME280_pressure;Samples;Min_cycle;Max_cycle;Signal;HPM_P1;HPM_P2
2023/07/19 00:01:14;;;;;;;5.67;2.33;;;;;;;18.91;58.77;100075.02;1692430;85;21096;-65
2023/07/19 00:03:44;;;;;;;6.83;1.90;;;;;;;18.91;58.97;100068.08;1692370;85;21037;-65
2023/07/19 00:06:15;;;;;;;4.75;2.02;;;;;;;18.91;58.97;100070.85;1692493;85;21017;-63
2023/07/19 00:08:45;;;;;;;4.12;1.85;;;;;;;18.94;59.04;100073.11;1692213;85;21057;-65
2023/07/19 00:11:14;;;;;;;5.97;2.12;;;;;;;18.92;59.23;100074.75;1672953;85;21036;-65
2023/07/19 00:13:45;;;;;;;4.33;1.80;;;;;;;18.87;59.44;100066.92;1692498;85;21484;-64
2023/07/19 00:16:16;;;;;;;7.83;2.08;;;;;;;18.83;59.71;100067.12;1673335;85;21061;-64
2023/07/19 00:18:47;;;;;;;5.50;2.20;;;;;;;18.80;59.93;100069.02;1672981;85;21061;-65
2023/07/19 00:21:16;;;;;;;6.25;2.55;;;;;;;18.77;60.15;100066.77;1692167;85;21254;-64
2023/07/19 00:23:46;;;;;;;7.45;2.30;;;;;;;18.72;60.35;100065.33;1692418;83;21088;-64
2023/07/19 00:26:15;;;;;;;8.00;2.55;;;;;;;18.66;60.66;100063.87;1614925;89;21109;-66
2023/07/19 00:28:45;;;;;;;5.22;2.50;;;;;;;18.62;60.84;100070.20;1573867;89;21485;-64
2023/07/19 00:31:15;;;;;;;5.00;2.25;;;;;;;18.53;61.12;100069.78;1614751;89;22116;-64
2023/07/19 00:33:45;;;;;;;10.23;3.10;;;;;;;18.47;61.48;100071.36;1593723;89;21090;-65
2023/07/19 00:36:17;;;;;;;10.28;3.10;;;;;;;18.39;61.75;100074.04;1614904;89;21065;-64
2023/07/19 00:38:46;;;;;;;8.48;3.40;;;;;;;18.31;61.93;100075.32;1615210;87;21080;-65
2023/07/19 00:41:15;;;;;;;8.35;2.90;;;;;;;18.29;62.18;100079.45;1615114;89;21558;-65
2023/07/19 00:43:48;;;;;;;7.33;3.12;;;;;;;18.25;62.37;100083.28;1615151;87;21101;-64
2023/07/19 00:46:17;;;;;;;9.40;3.15;;;;;;;18.25;62.47;100086.05;1593907;88;21207;-64
2023/07/19 00:48:47;;;;;;;11.22;3.75;;;;;;;18.29;62.44;100087.77;1594232;87;21230;-64
2023/07/19 00:51:16;;;;;;;9.53;2.92;;;;;;;18.34;62.42;100084.52;1648758;84;21500;-64
2023/07/19 00:53:49;;;;;;;7.28;3.20;;;;;;;18.40;62.33;100086.81;1675847;84;21069;-64
2023/07/19 00:56:19;;;;;;;7.45;3.05;;;;;;;18.42;62.17;100086.01;1704926;84;21045;-64
2023/07/19 00:58:49;;;;;;;8.60;3.37;;;;;;;18.38;62.14;100084.30;1704802;82;21500;-64
2023/07/19 01:01:23;;;;;;;8.43;3.20;;;;;;;18.34;62.25;100090.61;1675201;84;21040;-64
2023/07/19 01:03:54;;;;;;;10.70;3.60;;;;;;;18.29;62.30;100087.22;1704758;84;21024;-68
2023/07/19 01:06:23;;;;;;;8.13;3.27;;;;;;;18.24;62.52;100092.70;1705127;84;21032;-66
2023/07/19 01:08:54;;;;;;;9.58;3.65;;;;;;;18.17;62.73;100082.84;1615290;87;21211;-65
2023/07/19 01:11:23;;;;;;;10.60;3.98;;;;;;;18.07;63.02;100082.16;1615060;87;21116;-64
2023/07/19 01:13:54;;;;;;;7.22;3.62;;;;;;;18.05;63.04;100086.57;1614997;89;21148;-63
2023/07/19 01:16:25;;;;;;;9.13;3.50;;;;;;;18.02;63.16;100087.63;1541306;91;21414;-64
2023/07/19 01:18:55;;;;;;;8.18;3.52;;;;;;;17.97;63.41;100082.00;1541281;93;21527;-64
2023/07/19 01:21:25;;;;;;;9.83;3.77;;;;;;;17.94;63.49;100079.19;1541209;91;21507;-65
2023/07/19 01:23:57;;;;;;;10.18;4.12;;;;;;;17.95;63.38;100082.26;1541198;93;21686;-64
2023/07/19 01:26:28;;;;;;;13.98;5.22;;;;;;;17.96;63.19;100078.94;1541284;91;21105;-63
2023/07/19 01:28:58;;;;;;;8.65;4.55;;;;;;;17.88;63.30;100070.51;1503491;93;21099;-66
2023/07/19 01:31:28;;;;;;;10.05;4.17;;;;;;;17.83;63.44;100075.13;1541524;91;21126;-63
2023/07/19 01:33:58;;;;;;;8.90;4.55;;;;;;;17.81;63.62;100076.77;1592144;87;21022;-63
2023/07/19 01:36:28;;;;;;;10.28;4.78;;;;;;;17.82;63.61;100082.61;1615048;89;21045;-64
2023/07/19 01:38:57;;;;;;;14.83;4.47;;;;;;;17.81;63.65;100070.39;1593993;89;21077;-64
2023/07/19 01:41:26;;;;;;;10.63;4.15;;;;;;;17.77;63.84;100063.13;1675369;84;21464;-65
2023/07/19 01:43:55;;;;;;;12.10;4.22;;;;;;;17.72;64.07;100065.82;1704939;84;21096;-65
2023/07/19 01:46:24;;;;;;;10.50;4.50;;;;;;;17.71;64.29;100069.68;1703550;84;21038;-65
2023/07/19 01:48:55;;;;;;;9.78;4.45;;;;;;;17.72;64.43;100058.89;1687239;84;21061;-66
2023/07/19 01:51:25;;;;;;;9.13;4.67;;;;;;;17.71;64.49;100057.21;1699495;83;21052;-65
2023/07/19 01:53:55;;;;;;;7.92;4.37;;;;;;;17.66;64.60;100064.90;1687268;84;21080;-65
2023/07/19 01:56:25;;;;;;;9.65;4.60;;;;;;;17.60;64.75;100063.65;1661867;85;21457;-65
2023/07/19 01:58:54;;;;;;;8.40;4.10;;;;;;;17.58;64.91;100068.61;1699843;83;21092;-64
2023/07/19 02:01:24;;;;;;;9.63;4.20;;;;;;;17.56;64.93;100066.63;1603387;88;21125;-66
2023/07/19 02:03:54;;;;;;;11.03;4.30;;;;;;;17.55;65.05;100062.15;1603426;89;21538;-66
2023/07/19 02:06:23;;;;;;;7.80;4.20;;;;;;;17.55;65.00;100060.77;1603560;89;21081;-65
2023/07/19 02:08:52;;;;;;;9.93;4.75;;;;;;;17.57;64.80;100055.84;1603556;89;21121;-66
2023/07/19 02:11:21;;;;;;;8.93;4.28;;;;;;;17.53;64.67;100058.24;1603520;89;21523;-65
2023/07/19 02:13:55;;;;;;;7.80;4.22;;;;;;;17.49;64.61;100057.61;1603671;89;21149;-65
2023/07/19 02:16:25;;;;;;;9.00;4.12;;;;;;;17.51;64.45;100052.66;1603400;89;22012;-65
2023/07/19 02:18:54;;;;;;;6.22;3.55;;;;;;;17.53;64.24;100057.41;1603634;88;21125;-65
2023/07/19 02:21:24;;;;;;;6.90;4.00;;;;;;;17.52;64.22;100057.11;1603639;89;21086;-65
2023/07/19 02:23:54;;;;;;;8.05;3.92;;;;;;;17.51;64.23;100056.27;1603609;89;21057;-65
2023/07/19 02:26:26;;;;;;;6.58;4.10;;;;;;;17.51;64.27;100066.52;1658289;85;21152;-68
2023/07/19 02:28:56;;;;;;;10.58;4.00;;;;;;;17.44;64.56;100056.98;1687251;85;21571;-66
2023/07/19 02:31:26;;;;;;;6.70;3.58;;;;;;;17.42;64.79;100057.78;1661787;85;21144;-66
2023/07/19 02:33:55;;;;;;;6.05;3.47;;;;;;;17.40;64.91;100066.34;1699610;84;21104;-66
2023/07/19 02:36:25;;;;;;;10.08;3.75;;;;;;;17.38;64.98;100062.14;1687291;84;21060;-65
2023/07/19 02:38:55;;;;;;;10.93;4.12;;;;;;;17.32;65.08;100058.98;1699640;84;21496;-65
2023/07/19 02:41:24;;;;;;;6.75;3.65;;;;;;;17.32;65.23;100064.53;1687284;84;21065;-64
2023/07/19 02:43:53;;;;;;;11.28;4.12;;;;;;;17.33;65.03;100065.66;1699901;84;21041;-63
2023/07/19 02:46:23;;;;;;;7.03;3.62;;;;;;;17.36;64.84;100062.94;1671233;84;21234;-64
2023/07/19 02:48:55;;;;;;;6.20;3.37;;;;;;;17.38;64.73;100064.91;1695072;85;21033;-64
2023/07/19 02:51:27;;;;;;;5.72;3.37;;;;;;;17.42;64.57;100062.77;1673152;85;21065;-65
2023/07/19 02:53:56;;;;;;;6.78;3.17;;;;;;;17.47;64.30;100058.41;1672973;84;21041;-64
2023/07/19 02:56:26;;;;;;;9.58;3.58;;;;;;;17.45;64.24;100069.74;1673284;85;21093;-63
2023/07/19 02:58:55;;;;;;;6.17;3.55;;;;;;;17.43;64.21;100065.84;1614860;89;21092;-64
2023/07/19 03:01:23;;;;;;;7.05;3.85;;;;;;;17.43;64.36;100068.61;1614938;89;21137;-64
2023/07/19 03:03:55;;;;;;;7.33;3.33;;;;;;;17.44;64.44;100063.36;1615244;89;21094;-65
2023/07/19 03:06:24;;;;;;;6.45;3.75;;;;;;;17.44;64.45;100063.36;1614966;87;21089;-65
2023/07/19 03:08:53;;;;;;;7.83;3.60;;;;;;;17.47;64.49;100054.26;1615237;89;21160;-64
2023/07/19 03:11:23;;;;;;;10.32;3.92;;;;;;;17.57;64.07;100055.84;1615093;87;21148;-64
2023/07/19 03:13:52;;;;;;;6.05;3.80;;;;;;;17.60;63.58;100053.41;1593947;89;21571;-65
2023/07/19 03:16:22;;;;;;;6.25;3.67;;;;;;;17.63;63.49;100052.91;1631941;85;21143;-64
2023/07/19 03:18:52;;;;;;;7.97;3.95;;;;;;;17.66;63.43;100059.36;1694927;85;21318;-64
2023/07/19 03:21:24;;;;;;;5.95;3.65;;;;;;;17.70;63.29;100062.46;1695226;85;21076;-64
2023/07/19 03:23:54;;;;;;;9.10;4.10;;;;;;;17.74;63.36;100063.63;1673216;85;21508;-64
2023/07/19 03:26:22;;;;;;;9.13;4.00;;;;;;;17.75;63.39;100058.39;1695201;85;21044;-63
2023/07/19 03:28:52;;;;;;;9.53;3.42;;;;;;;17.75;63.39;100061.16;1695025;85;21087;-64
2023/07/19 03:31:24;;;;;;;8.38;3.80;;;;;;;17.79;63.37;100069.80;1695057;83;21081;-64
2023/07/19 03:33:53;;;;;;;7.05;3.75;;;;;;;17.82;63.40;100064.59;1695044;85;21025;-64
2023/07/19 03:36:24;;;;;;;9.58;3.52;;;;;;;17.88;63.21;100062.19;1695235;85;21049;-65
2023/07/19 03:38:55;;;;;;;8.58;3.77;;;;;;;17.93;63.13;100057.27;1673063;84;21200;-63
2023/07/19 03:41:25;;;;;;;8.18;3.72;;;;;;;17.98;62.95;100064.27;1695087;85;21025;-64
2023/07/19 03:43:56;;;;;;;11.57;3.92;;;;;;;18.01;63.07;100063.77;1694915;83;21473;-65
2023/07/19 03:46:24;;;;;;;9.95;4.20;;;;;;;18.01;63.27;100063.77;1673440;83;21044;-64
2023/07/19 03:48:54;;;;;;;8.53;3.72;;;;;;;18.01;63.42;100057.67;1679743;84;21155;-65
2023/07/19 03:51:24;;;;;;;10.55;4.00;;;;;;;18.01;63.61;100059.06;1707776;83;21095;-65
2023/07/19 03:53:54;;;;;;;11.78;4.42;;;;;;;18.04;63.62;100048.01;1679756;84;21083;-64
2023/07/19 03:56:24;;;;;;;8.20;4.40;;;;;;;18.11;63.54;100049.21;1680065;84;21039;-64
2023/07/19 03:58:54;;;;;;;5.97;3.58;;;;;;;18.12;63.33;100046.18;1707974;84;21056;-65
2023/07/19 04:01:23;;;;;;;6.95;3.25;;;;;;;18.20;63.05;100049.06;1707953;83;21444;-64
2023/07/19 04:03:55;;;;;;;8.75;3.52;;;;;;;18.27;62.92;100045.59;1708034;84;21070;-64
2023/07/19 04:06:25;;;;;;;15.03;4.00;;;;;;;18.32;62.78;100045.65;1707839;84;21503;-65
2023/07/19 04:08:56;;;;;;;12.82;3.90;;;;;;;18.39;62.77;100050.46;1707826;83;21467;-64
2023/07/19 04:11:28;;;;;;;9.78;4.10;;;;;;;18.44;62.92;100053.30;1707847;84;21467;-64
2023/07/19 04:13:58;;;;;;;8.65;3.75;;;;;;;18.50;63.14;100054.20;1620053;87;21203;-64
2023/07/19 04:16:28;;;;;;;7.83;3.60;;;;;;;18.57;63.12;100050.68;1615661;89;21079;-65
2023/07/19 04:18:58;;;;;;;8.55;3.75;;;;;;;18.65;63.01;100053.03;1615654;89;21033;-66
2023/07/19 04:21:31;;;;;;;6.60;3.42;;;;;;;18.69;62.83;100050.87;1615500;89;21059;-64
2023/07/19 04:24:04;;;;;;;8.40;3.37;;;;;;;18.76;62.64;100048.44;1620235;88;21566;-65
2023/07/19 04:26:33;;;;;;;11.18;3.42;;;;;;;18.84;62.52;100053.53;1615458;89;21088;-65
2023/07/19 04:29:03;;;;;;;9.48;3.90;;;;;;;18.89;62.24;100052.23;1615668;89;21480;-65
2023/07/19 04:31:33;;;;;;;8.93;3.62;;;;;;;18.95;61.97;100053.95;1638832;84;21136;-64
2023/07/19 04:34:03;;;;;;;8.45;3.60;;;;;;;19.02;61.83;100055.14;1700425;84;21443;-65
2023/07/19 04:36:34;;;;;;;10.03;3.75;;;;;;;19.09;61.58;100051.61;1700788;84;21048;-64
2023/07/19 04:39:05;;;;;;;13.08;4.33;;;;;;;19.14;61.34;100044.16;1700504;83;21040;-65
2023/07/19 04:41:35;;;;;;;14.45;4.53;;;;;;;19.20;61.21;100045.88;1700545;84;21677;-64
2023/07/19 04:44:06;;;;;;;9.33;4.33;;;;;;;19.27;61.11;100047.05;1700573;83;21491;-64
2023/07/19 04:46:37;;;;;;;7.28;3.92;;;;;;;19.34;60.80;100046.29;1675192;84;21484;-65
2023/07/19 04:49:06;;;;;;;15.23;4.67;;;;;;;19.41;60.37;100049.69;1700382;84;21099;-66
2023/07/19 04:51:38;;;;;;;20.05;5.15;;;;;;;19.50;59.86;100048.09;1700374;84;21043;-65
2023/07/19 04:54:08;;;;;;;11.68;4.83;;;;;;;19.60;59.22;100048.80;1674653;84;21512;-66
2023/07/19 04:56:36;;;;;;;12.68;4.37;;;;;;;19.71;58.60;100055.27;1700660;84;21092;-64
2023/07/19 04:59:05;;;;;;;10.40;4.22;;;;;;;19.80;58.10;100040.61;1700775;83;21083;-66
2023/07/19 05:01:36;;;;;;;6.65;3.40;;;;;;;19.91;57.64;100043.74;1674828;84;21444;-65
2023/07/19 05:04:06;;;;;;;6.53;2.95;;;;;;;20.03;56.88;100039.37;1674378;84;21039;-65
2023/07/19 05:06:37;;;;;;;6.33;3.02;;;;;;;20.21;55.41;100029.77;1700574;84;21051;-65
2023/07/19 05:09:09;;;;;;;5.37;2.50;;;;;;;20.38;54.67;100035.13;1674763;84;21063;-65
2023/07/19 05:11:39;;;;;;;5.17;2.83;;;;;;;20.61;54.17;100036.66;1700481;83;21448;-65
2023/07/19 05:14:11;;;;;;;9.03;3.30;;;;;;;20.91;53.29;100031.20;1700591;84;21043;-66
2023/07/19 05:16:40;;;;;;;5.75;2.90;;;;;;;21.27;52.30;100032.69;1700628;84;21052;-66
2023/07/19 05:19:12;;;;;;;8.23;2.80;;;;;;;21.57;51.21;100032.73;1674776;84;21428;-65
2023/07/19 05:21:41;;;;;;;9.28;2.85;;;;;;;21.86;50.60;100030.75;1700584;83;21015;-65
2023/07/19 05:24:12;;;;;;;5.08;2.60;;;;;;;22.17;49.90;100040.79;1700440;84;21020;-66
2023/07/19 05:26:44;;;;;;;6.95;2.70;;;;;;;22.51;48.92;100035.93;1591689;90;21130;-66
2023/07/19 05:29:14;;;;;;;9.93;2.83;;;;;;;22.89;47.82;100039.44;1620175;88;21217;-66
2023/07/19 05:31:43;;;;;;;5.75;2.40;;;;;;;23.24;47.40;100031.94;1615599;89;21079;-65
2023/07/19 05:34:15;;;;;;;8.18;2.83;;;;;;;23.57;45.96;100036.78;1615377;89;21140;-63
2023/07/19 05:36:45;;;;;;;8.10;3.02;;;;;;;23.77;44.84;100039.95;1615609;89;21120;-63
2023/07/19 05:39:14;;;;;;;9.50;3.40;;;;;;;23.98;44.59;100041.43;1615612;89;21097;-65
2023/07/19 05:41:44;;;;;;;10.93;2.70;;;;;;;24.24;44.28;100045.39;1615676;89;21541;-66
2023/07/19 05:44:13;;;;;;;8.98;2.67;;;;;;;24.48;43.76;100036.45;1615655;89;21127;-67
2023/07/19 05:46:42;;;;;;;8.20;2.67;;;;;;;24.73;43.29;100038.13;1615550;89;21107;-65
2023/07/19 05:49:11;;;;;;;10.35;2.58;;;;;;;25.01;42.47;100036.94;1614749;87;21113;-66
2023/07/19 05:51:40;;;;;;;6.60;2.10;;;;;;;25.18;41.55;100034.44;1667387;84;21116;-67
2023/07/19 05:54:10;;;;;;;7.92;2.30;;;;;;;25.33;40.62;100034.77;1702718;84;21052;-66
2023/07/19 05:56:41;;;;;;;9.05;2.95;;;;;;;25.34;40.33;100028.85;1697398;84;21302;-66
2023/07/19 05:59:11;;;;;;;4.60;2.22;;;;;;;25.47;39.50;100025.30;1702526;82;21091;-67
2023/07/19 06:01:40;;;;;;;5.53;2.45;;;;;;;25.57;39.51;100026.53;1697493;84;21068;-64
2023/07/19 06:04:10;;;;;;;5.72;2.35;;;;;;;25.75;39.88;100018.41;1702695;83;21076;-67
2023/07/19 06:06:40;;;;;;;9.25;2.65;;;;;;;25.93;39.55;100022.30;1692850;84;21498;-66
2023/07/19 06:09:11;;;;;;;17.05;4.35;;;;;;;26.04;39.27;100020.42;1670062;84;21158;-65
2023/07/19 06:11:41;;;;;;;8.60;2.30;;;;;;;26.12;38.89;100019.70;1702679;83;21052;-65
2023/07/19 06:14:12;;;;;;;4.90;2.02;;;;;;;26.27;38.52;100016.33;1697521;83;21093;-64
2023/07/19 06:16:42;;;;;;;5.20;2.00;;;;;;;26.41;37.84;100016.63;1702504;82;21052;-65
2023/07/19 06:19:11;;;;;;;5.15;2.05;;;;;;;26.54;37.59;100020.00;1697380;83;21056;-65
2023/07/19 06:21:40;;;;;;;4.25;1.75;;;;;;;26.71;37.34;100019.97;1702697;82;20988;-64
2023/07/19 06:24:10;;;;;;;7.58;2.17;;;;;;;26.90;36.77;100017.85;1697713;84;21001;-65
2023/07/19 06:26:40;;;;;;;4.03;2.12;;;;;;;27.15;36.52;100008.86;1702436;84;21076;-67
2023/07/19 06:29:10;;;;;;;3.80;1.80;;;;;;;27.41;36.25;100017.54;1697556;84;21072;-67
2023/07/19 06:31:39;;;;;;;9.88;2.58;;;;;;;27.62;35.49;100003.81;1702406;83;21116;-67
2023/07/19 06:34:07;;;;;;;7.05;2.30;;;;;;;27.75;34.87;99998.69;1692921;84;21080;-66
2023/07/19 06:36:37;;;;;;;3.45;1.70;;;;;;;27.71;34.88;99991.20;1702483;82;21001;-65
2023/07/19 06:39:07;;;;;;;6.40;2.52;;;;;;;27.72;34.84;99991.45;1697592;83;21131;-66
2023/07/19 06:41:37;;;;;;;6.08;3.17;;;;;;;27.83;35.02;99997.07;1612904;87;21104;-66
2023/07/19 06:44:08;;;;;;;6.58;2.98;;;;;;;27.97;34.67;99993.63;1613161;89;21108;-67
2023/07/19 06:46:37;;;;;;;5.45;2.92;;;;;;;28.15;34.55;99990.88;1612877;87;21130;-65
2023/07/19 06:49:07;;;;;;;7.05;3.05;;;;;;;28.33;33.58;99982.20;1612885;88;21121;-67
2023/07/19 06:51:36;;;;;;;7.22;2.83;;;;;;;28.33;33.71;99977.97;1634695;87;21145;-65
2023/07/19 06:54:05;;;;;;;5.42;2.75;;;;;;;28.25;34.17;99980.19;1638641;87;21087;-66
2023/07/19 06:56:38;;;;;;;3.72;1.85;;;;;;;28.40;34.10;99971.86;1638077;87;21566;-66
2023/07/19 06:59:10;;;;;;;6.22;2.02;;;;;;;28.57;33.45;99966.84;1638626;87;21060;-65
2023/07/19 07:01:39;;;;;;;14.63;2.60;;;;;;;28.58;33.45;99969.92;1638640;87;21178;-67
2023/07/19 07:04:10;;;;;;;9.28;2.95;;;;;;;28.66;32.97;99964.33;1638663;87;21120;-66
2023/07/19 07:06:40;;;;;;;2.87;1.85;;;;;;;28.86;32.57;99962.89;1698317;83;21515;-66
2023/07/19 07:09:09;;;;;;;3.12;1.80;;;;;;;29.08;31.60;99963.31;1725769;83;21021;-67
2023/07/19 07:11:39;;;;;;;10.50;3.10;;;;;;;29.09;31.31;99948.05;1725888;83;21021;-65
2023/07/19 07:14:08;;;;;;;5.60;2.33;;;;;;;29.04;31.55;99955.27;1725904;83;21060;-65
2023/07/19 07:16:38;;;;;;;5.00;2.35;;;;;;;29.16;31.79;99952.61;1725931;83;21445;-67
2023/07/19 07:19:08;;;;;;;5.65;2.35;;;;;;;29.43;31.60;99947.25;1725949;83;21028;-67
2023/07/19 07:21:37;;;;;;;6.03;2.95;;;;;;;29.62;30.31;99939.23;1725811;83;21009;-66
2023/07/19 07:24:07;;;;;;;3.72;1.75;;;;;;;29.69;30.57;99940.13;1725812;83;21538;-66
2023/07/19 07:26:37;;;;;;;4.12;1.82;;;;;;;29.83;30.07;99944.16;1726155;83;21021;-67
2023/07/19 07:29:06;;;;;;;9.10;2.60;;;;;;;29.82;29.85;99945.33;1726190;83;21108;-65
2023/07/19 07:31:37;;;;;;;3.77;1.77;;;;;;;29.77;29.35;99940.69;1725982;83;21056;-65
2023/07/19 07:34:07;;;;;;;3.62;2.52;;;;;;;29.85;29.56;99945.48;1725794;83;21512;-67
2023/07/19 07:36:38;;;;;;;4.85;2.00;;;;;;;30.02;29.82;99935.34;1725867;83;21060;-67
2023/07/19 07:39:07;;;;;;;3.83;1.70;;;;;;;30.17;29.79;99932.77;1726048;83;21140;-68
2023/07/19 07:41:36;;;;;;;4.05;1.55;;;;;;;30.24;29.06;99941.55;1725826;83;20989;-66
2023/07/19 07:44:05;;;;;;;7.00;2.22;;;;;;;30.13;28.16;99933.80;1726041;83;21029;-67
2023/07/19 07:46:35;;;;;;;4.85;2.27;;;;;;;30.11;28.38;99927.65;1725897;83;21052;-68
2023/07/19 07:49:05;;;;;;;4.50;2.10;;;;;;;30.16;28.64;99934.52;1725930;83;21148;-67
2023/07/19 07:51:35;;;;;;;8.05;4.50;;;;;;;30.20;28.86;99928.44;1712600;83;21134;-66
2023/07/19 07:54:05;;;;;;;4.78;1.72;;;;;;;30.20;28.51;99925.02;1707816;83;21032;-66
2023/07/19 07:56:34;;;;;;;5.40;2.00;;;;;;;30.14;29.09;99931.20;1707995;83;21016;-66
2023/07/19 07:59:07;;;;;;;4.15;1.70;;;;;;;29.85;28.83;99941.83;1707293;82;21470;-67
2023/07/19 08:01:41;;;;;;;5.28;1.42;;;;;;;29.49;28.31;99933.20;1707685;83;21163;-67
2023/07/19 08:04:12;;;;;;;4.47;2.00;;;;;;;29.15;28.84;99938.83;1707560;84;21039;-68
2023/07/19 08:06:42;;;;;;;5.65;2.05;;;;;;;28.89;29.67;99941.66;1707565;83;21043;-67
2023/07/19 08:09:11;;;;;;;4.92;2.35;;;;;;;28.90;29.68;99932.87;1707819;83;21086;-68
2023/07/19 08:11:42;;;;;;;7.05;2.20;;;;;;;28.94;29.29;99926.81;1707523;84;21079;-67
2023/07/19 08:14:11;;;;;;;2.58;1.67;;;;;;;28.84;29.48;99943.23;1707750;83;21063;-65
2023/07/19 08:16:39;;;;;;;2.15;1.60;;;;;;;28.60;29.49;99940.23;1707745;83;21029;-67
2023/07/19 08:19:09;;;;;;;4.95;1.57;;;;;;;28.22;29.90;99944.75;1707882;83;21043;-68
2023/07/19 08:21:38;;;;;;;10.00;3.92;;;;;;;27.97;30.74;99935.88;1707552;83;21079;-65
2023/07/19 08:24:07;;;;;;;10.03;3.30;;;;;;;27.90;30.66;99935.48;1707623;84;21069;-68
2023/07/19 08:26:37;;;;;;;4.65;1.80;;;;;;;27.75;29.31;99948.58;1680232;84;21000;-67
2023/07/19 08:29:06;;;;;;;4.42;1.60;;;;;;;27.34;29.22;99939.78;1707688;84;21098;-67
2023/07/19 08:31:36;;;;;;;2.10;1.42;;;;;;;26.98;29.71;99940.37;1707525;84;21040;-67
2023/07/19 08:34:05;;;;;;;4.37;1.50;;;;;;;26.94;30.11;99950.56;1708071;84;21448;-68
2023/07/19 08:36:34;;;;;;;3.72;1.40;;;;;;;27.12;30.17;99932.14;1707714;84;21035;-67
2023/07/19 08:39:04;;;;;;;3.05;1.42;;;;;;;27.56;29.09;99931.05;1707853;83;21067;-69
2023/07/19 08:41:33;;;;;;;3.77;1.50;;;;;;;27.97;28.73;99938.70;1707599;84;21040;-67
2023/07/19 08:44:02;;;;;;;5.42;1.85;;;;;;;28.36;28.10;99932.81;1707672;84;21087;-69
2023/07/19 08:46:31;;;;;;;4.50;1.70;;;;;;;28.62;27.80;99938.53;1707756;83;21137;-67
2023/07/19 08:49:00;;;;;;;2.85;1.30;;;;;;;28.83;27.60;99933.08;1636418;84;21313;-69
2023/07/19 08:51:29;;;;;;;2.90;1.32;;;;;;;29.12;27.75;99928.22;1717765;83;21076;-72
2023/07/19 08:53:59;;;;;;;5.47;1.85;;;;;;;29.43;27.50;99920.43;1726011;83;21076;-69
2023/07/19 08:56:33;;;;;;;3.15;1.47;;;;;;;29.74;26.70;99912.29;1725698;83;21496;-68
2023/07/19 08:59:03;;;;;;;4.17;1.90;;;;;;;29.86;26.03;99906.76;1725986;83;21079;-68
2023/07/19 09:01:32;;;;;;;4.17;1.67;;;;;;;29.81;25.89;99921.06;1725733;83;21063;-68
2023/07/19 09:04:09;;;;;;;5.83;1.20;;;;;;;29.62;25.69;99910.17;1725953;83;21016;-68
2023/07/19 09:06:43;;;;;;;3.40;1.42;;;;;;;29.41;25.94;99910.61;1677362;83;21068;-69
2023/07/19 09:09:16;;;;;;;2.80;1.85;;;;;;;29.10;26.31;99905.14;1701006;83;21505;-68
2023/07/19 09:11:49;;;;;;;3.62;1.30;;;;;;;28.94;26.32;99909.05;1699352;83;21212;-68
2023/07/19 09:14:18;;;;;;;4.45;1.37;;;;;;;28.88;26.37;99889.23;1725825;83;21163;-67
2023/07/19 09:16:49;;;;;;;6.40;1.80;;;;;;;28.87;26.62;99893.21;1697924;83;21055;-67
2023/07/19 09:19:18;;;;;;;1.85;1.10;;;;;;;28.81;26.54;99887.46;1725944;83;21455;-67
2023/07/19 09:21:50;;;;;;;2.80;1.35;;;;;;;28.62;26.96;99904.70;1676971;83;21421;-67
2023/07/19 09:24:19;;;;;;;2.02;1.20;;;;;;;28.24;27.45;99890.34;1698173;83;21100;-67
2023/07/19 09:26:58;;;;;;;3.77;1.40;;;;;;;28.00;28.00;99881.72;1725756;83;21080;-66
2023/07/19 09:29:31;;;;;;;3.25;1.40;;;;;;;27.90;28.50;99884.80;1675655;83;21084;-66
2023/07/19 09:32:01;;;;;;;3.62;1.70;;;;;;;28.07;28.81;99879.83;1725856;83;21032;-68
2023/07/19 09:34:37;;;;;;;4.95;1.35;;;;;;;28.25;28.82;99875.10;1726265;82;21280;-67
2023/07/19 09:37:07;;;;;;;2.92;1.45;;;;;;;28.34;27.98;99868.91;1745755;82;21079;-68
2023/07/19 09:39:37;;;;;;;1.85;0.98;;;;;;;28.39;26.90;99877.20;1725826;83;21051;-66
2023/07/19 09:42:10;;;;;;;2.85;1.22;;;;;;;28.25;27.04;99873.11;1735589;82;20987;-68
2023/07/19 09:44:39;;;;;;;2.87;1.37;;;;;;;28.09;26.65;99870.48;1734237;82;21025;-68
2023/07/19 09:47:08;;;;;;;3.30;1.30;;;;;;;27.76;27.66;99876.47;1725638;83;21084;-66
2023/07/19 09:49:40;;;;;;;2.22;1.40;;;;;;;27.76;27.66;99876.47;1725588;83;21037;-67
2023/07/19 09:52:16;;;;;;;6.37;2.08;;;;;;;27.66;27.91;99864.09;1707636;83;21133;-68
2023/07/19 09:54:46;;;;;;;3.05;1.60;;;;;;;27.57;28.32;99865.17;1711491;82;21098;-68
2023/07/19 09:57:15;;;;;;;3.05;1.35;;;;;;;27.55;28.47;99861.27;1691572;85;21023;-68
2023/07/19 09:59:46;;;;;;;1.80;1.45;;;;;;;27.51;28.85;99857.44;1703352;83;21085;-69
2023/07/19 10:02:22;;;;;;;8.90;1.60;;;;;;;27.48;28.79;99846.26;1692399;85;21026;-68
2023/07/19 10:04:54;;;;;;;5.37;2.15;;;;;;;27.48;29.14;99846.26;1674935;84;21057;-69
2023/07/19 10:07:26;;;;;;;8.78;1.62;;;;;;;27.47;29.34;99847.41;1692290;85;21027;-69
2023/07/19 10:10:04;;;;;;;3.55;1.70;;;;;;;27.50;28.87;99845.10;1690581;84;21026;-66
2023/07/19 10:12:36;;;;;;;2.35;1.50;;;;;;;27.50;28.96;99849.32;1692295;85;21038;-68
2023/07/19 10:15:07;;;;;;;7.45;1.42;;;;;;;27.57;29.04;99837.85;1659590;85;21035;-67
2023/07/19 10:17:41;;;;;;;3.25;1.40;;;;;;;27.66;28.98;99840.73;1692223;85;21014;-66
2023/07/19 10:20:14;;;;;;;3.90;1.37;;;;;;;27.39;29.11;99834.13;1659901;85;21142;-67
2023/07/19 10:22:59;;;;;;;3.10;1.40;;;;;;;27.39;29.11;99834.13;1691975;85;21102;-68
2023/07/19 10:25:37;;;;;;;2.37;1.37;;;;;;;27.38;29.41;99838.67;1692792;84;21085;-69
2023/07/19 10:28:10;;;;;;;3.52;1.30;;;;;;;27.37;28.91;99828.57;1704253;83;21077;-68
2023/07/19 10:30:48;;;;;;;2.72;1.15;;;;;;;27.30;29.17;99828.17;1685712;84;21041;-67
2023/07/19 10:33:29;;;;;;;3.73;1.30;;;;;;;27.21;29.10;99824.48;1686476;84;21101;-68
2023/07/19 10:36:12;;;;;;;2.65;1.20;;;;;;;27.02;28.93;99825.53;1686122;84;21192;-68
2023/07/19 10:38:43;;;;;;;3.70;1.30;;;;;;;27.02;28.93;99825.53;1704461;84;21519;-67
2023/07/19 10:41:14;;;;;;;5.15;1.40;;;;;;;26.96;29.32;99824.55;1704422;83;21470;-68
2023/07/19 10:43:44;;;;;;;3.58;2.30;;;;;;;26.86;29.78;99827.05;1713491;83;21051;-67
2023/07/19 10:46:15;;;;;;;3.05;1.55;;;;;;;26.84;29.52;99815.29;1669157;86;21132;-69
2023/07/19 10:48:44;;;;;;;2.45;1.20;;;;;;;26.87;29.83;99815.22;1669563;86;21170;-67
2023/07/19 10:51:13;;;;;;;3.47;1.65;;;;;;;26.95;29.66;99804.61;1669604;86;21491;-68
2023/07/19 10:53:46;;;;;;;4.35;1.30;;;;;;;27.05;29.28;99805.20;1669404;86;21079;-67
2023/07/19 10:56:16;;;;;;;5.47;1.30;;;;;;;27.18;29.27;99809.08;1729984;83;20992;-68
2023/07/19 10:58:46;;;;;;;3.50;1.20;;;;;;;27.33;28.49;99813.48;1724948;83;21039;-68
2023/07/19 11:01:16;;;;;;;2.58;1.10;;;;;;;27.44;28.23;99800.22;1725906;83;21022;-66
2023/07/19 11:03:47;;;;;;;2.62;1.67;;;;;;;27.50;28.06;99795.85;1726185;83;21054;-67
2023/07/19 11:06:16;;;;;;;3.17;1.25;;;;;;;27.60;27.88;99806.81;1731652;83;21030;-67
2023/07/19 11:08:49;;;;;;;11.30;2.72;;;;;;;27.62;27.69;99805.95;1731401;83;21120;-69
2023/07/19 11:11:19;;;;;;;2.10;1.12;;;;;;;27.62;28.01;99799.73;1701441;83;21050;-67
2023/07/19 11:13:49;;;;;;;2.37;1.22;;;;;;;27.58;28.28;99802.09;1731429;83;21065;-68
2023/07/19 11:16:18;;;;;;;5.85;2.00;;;;;;;27.43;28.61;99791.53;1656865;83;21065;-67
2023/07/19 11:18:47;;;;;;;3.12;1.57;;;;;;;27.43;28.61;99791.53;1731545;83;20986;-68
2023/07/19 11:21:26;;;;;;;3.85;1.30;;;;;;;27.43;28.29;99791.53;1726330;83;21086;-69
2023/07/19 11:23:58;;;;;;;3.95;1.55;;;;;;;27.34;28.39;99789.83;1726477;83;21046;-67
2023/07/19 11:26:26;;;;;;;2.08;1.30;;;;;;;27.27;28.58;99802.92;1726241;83;21094;-68
2023/07/19 11:29:00;;;;;;;5.15;1.65;;;;;;;27.18;28.59;99797.83;1726370;83;21027;-68
2023/07/19 11:31:38;;;;;;;3.85;1.40;;;;;;;27.06;29.10;99795.61;1726197;83;21110;-71
2023/07/19 11:34:09;;;;;;;3.50;1.07;;;;;;;27.06;29.42;99789.16;1726504;83;21058;-68
2023/07/19 11:36:45;;;;;;;2.12;1.15;;;;;;;27.06;28.94;99789.99;1726295;83;21104;-72
2023/07/19 11:39:22;;;;;;;4.67;1.90;;;;;;;27.02;28.79;99781.95;1731589;83;21434;-67
2023/07/19 11:41:51;;;;;;;3.08;1.42;;;;;;;26.91;28.48;99781.09;1726269;83;21300;-70